Time;durP1;ratioP1;P1;durP2;ratioP2;P2;SDS_P1;SDS_P2;PMS_P1;PMS_P2;Temp;Humidity;BMP_temperature;BMP_pressure;BME280_temperature;BME280_humidity;BME280_pressure;Samples;Min_cycle;Max_cycle;Signal;HPM_P1;HPM_P2
2022/12/29 00:02:57;;;;;;;;;;;;;;;19.88;54.88;99994.56;2255158;78;50303;-76
2022/12/29 00:05:58;;;;;;;;;;;;;;;19.93;54.71;99984.03;2270824;77;50264;-76
2022/12/29 00:09:00;;;;;;;;;;;;;;;19.89;54.72;99980.13;2245389;78;51295;-76
2022/12/29 00:12:02;;;;;;;;;;;;;;;19.85;54.81;99966.80;2269201;78;50368;-76
2022/12/29 00:18:23;;;;;;;;;;;;;;;19.67;55.14;99973.61;2269398;78;21661;-76
2022/12/29 00:44:34;;;;;;;;;;;;;;;19.58;55.45;99951.50;2266215;78;24435;-76
2022/12/29 00:47:36;;;;;;;;;;;;;;;19.64;55.31;99944.47;2266027;78;52658;-76
2022/12/29 00:50:37;;;;;;;;;;;;;;;19.68;55.19;99952.47;2266169;78;50351;-76
2022/12/29 00:53:39;;;;;;;;;;;;;;;19.72;55.08;99937.58;2266094;78;50087;-76
2022/12/29 00:56:41;;;;;;;;;;;;;;;19.73;55.07;99937.05;2265941;78;51157;-76
2022/12/29 00:59:42;;;;;;;;;;;;;;;19.75;55.02;99933.66;2265983;78;51642;-76
2022/12/29 01:02:44;;;;;;;;;;;;;;;19.77;54.93;99933.75;2256328;78;52511;-76
2022/12/29 01:05:45;;;;;;;;;;;;;;;19.80;54.87;99931.17;2256669;78;50364;-76
2022/12/29 01:10:09;;;;;;;;;;;;;;;19.83;54.83;99937.45;2232072;78;51016;-76
2022/12/29 01:11:50;;;;;;;;;;;;;;;19.87;54.77;99933.86;2252767;77;22418;-76
2022/12/29 01:14:52;;;;;;;;;;;;;;;19.89;54.67;99917.84;2256742;77;51519;-76
2022/12/29 01:17:53;;;;;;;;;;;;;;;19.93;54.63;99934.35;2232129;79;51666;-76
2022/12/29 01:21:01;;;;;;;;;;;;;;;19.99;54.47;99929.50;2232108;78;50760;-76
2022/12/29 01:24:03;;;;;;;;;;;;;;;19.96;54.52;99931.24;2231841;78;52658;-76
2022/12/29 01:27:04;;;;;;;;;;;;;;;19.93;54.57;99930.33;2256537;78;50735;-76
2022/12/29 01:30:06;;;;;;;;;;;;;;;19.84;54.70;99926.23;2234075;78;51392;-76
2022/12/29 01:33:08;;;;;;;;;;;;;;;19.74;54.84;99923.44;2256735;78;50422;-76
2022/12/29 01:36:11;;;;;;;;;;;;;;;19.68;55.00;99930.14;2270537;78;50201;-76
2022/12/29 01:39:12;;;;;;;;;;;;;;;19.58;55.21;99930.55;2245745;78;50202;-76
2022/12/29 01:42:16;;;;;;;;;;;;;;;19.50;55.42;99925.40;2262490;78;51489;-76
2022/12/29 01:45:17;;;;;;;;;;;;;;;19.50;55.44;99912.80;2265048;77;50447;-76
2022/12/29 01:48:19;;;;;;;;;;;;;;;19.56;55.40;99929.92;2264388;78;51472;-75
2022/12/29 01:51:22;;;;;;;;;;;;;;;19.59;55.33;99926.83;2265959;78;51157;-76
2022/12/29 01:54:25;;;;;;;;;;;;;;;19.63;55.25;99921.89;2264456;78;50480;-76
2022/12/29 01:57:29;;;;;;;;;;;;;;;19.66;55.16;99914.23;2264093;78;50792;-76
2022/12/29 02:00:30;;;;;;;;;;;;;;;19.68;55.07;99905.50;2264422;78;50610;-76
2022/12/29 02:03:34;;;;;;;;;;;;;;;19.73;55.01;99904.84;2265953;78;51634;-75
2022/12/29 02:06:37;;;;;;;;;;;;;;;19.75;54.91;99892.05;2264469;78;22530;-75
2022/12/29 02:09:38;;;;;;;;;;;;;;;19.79;54.80;99892.77;2264329;78;50275;-75
2022/12/29 02:12:40;;;;;;;;;;;;;;;19.84;54.66;99898.86;2257682;78;50746;-75
2022/12/29 02:15:43;;;;;;;;;;;;;;;19.89;54.54;99891.00;2264278;75;51795;-75
2022/12/29 02:19:03;;;;;;;;;;;;;;;19.93;54.42;99884.68;2253517;78;50756;-75
2022/12/29 02:22:12;;;;;;;;;;;;;;;19.94;54.39;99878.30;2264608;77;50423;-76
2022/12/29 02:25:18;;;;;;;;;;;;;;;19.98;54.31;99886.22;2265086;78;50416;-76
2022/12/29 02:28:38;;;;;;;;;;;;;;;20.00;54.25;99876.91;2240599;78;51800;-76
2022/12/29 02:31:44;;;;;;;;;;;;;;;20.06;54.11;99883.30;2264212;78;50429;-76
2022/12/29 02:34:53;;;;;;;;;;;;;;;20.08;54.05;99879.89;2255085;78;50219;-76
2022/12/29 02:38:15;;;;;;;;;;;;;;;20.11;53.97;99877.30;2268762;77;50403;-76
2022/12/29 02:41:21;;;;;;;;;;;;;;;20.05;54.10;99873.60;2245098;78;51970;-76
2022/12/29 02:44:27;;;;;;;;;;;;;;;19.95;54.26;99867.33;2266497;78;51749;-76
2022/12/29 02:47:39;;;;;;;;;;;;;;;19.87;54.47;99868.08;2266137;78;50792;-76
2022/12/29 02:50:46;;;;;;;;;;;;;;;19.78;54.61;99872.34;2264394;78;51509;-76
2022/12/29 02:57:17;;;;;;;;;;;;;;;19.60;55.08;99864.09;2265474;78;22216;-76
2022/12/29 03:00:19;;;;;;;;;;;;;;;19.60;55.12;99865.43;2258337;77;51675;-76
2022/12/29 03:03:28;;;;;;;;;;;;;;;19.62;55.11;99863.34;2250864;79;51309;-75
2022/12/29 03:06:31;;;;;;;;;;;;;;;19.65;55.02;99858.06;2236574;78;51205;-76
2022/12/29 03:09:41;;;;;;;;;;;;;;;19.71;54.90;99855.94;2250863;79;50443;-76
2022/12/29 03:16:14;;;;;;;;;;;;;;;19.76;54.78;99842.72;2253976;78;23090;-76
2022/12/29 03:19:18;;;;;;;;;;;;;;;19.82;54.64;99832.98;2214857;79;52853;-76
2022/12/29 03:22:33;;;;;;;;;;;;;;;19.86;54.50;99828.34;2232132;79;51531;-76
2022/12/29 03:25:36;;;;;;;;;;;;;;;19.92;54.36;99833.37;2231782;79;22840;-76
2022/12/29 03:28:42;;;;;;;;;;;;;;;19.96;54.26;99831.89;2256643;78;49987;-76
2022/12/29 03:31:44;;;;;;;;;;;;;;;19.99;54.18;99835.00;2245084;78;52590;-76
2022/12/29 03:34:46;;;;;;;;;;;;;;;20.04;54.10;99834.86;2269037;77;51508;-75
2022/12/29 03:37:49;;;;;;;;;;;;;;;20.07;54.00;99827.22;2268908;77;51241;-76
2022/12/29 03:40:52;;;;;;;;;;;;;;;20.10;53.94;99831.34;2262354;78;50779;-76
2022/12/29 03:43:54;;;;;;;;;;;;;;;20.09;53.97;99833.21;2219495;79;50752;-76
2022/12/29 03:46:55;;;;;;;;;;;;;;;20.14;53.86;99828.02;2219196;78;51433;-76
2022/12/29 03:49:56;;;;;;;;;;;;;;;;;;2265622;78;51528;-76
2022/12/29 03:52:57;;;;;;;;;;;;;;;20.16;53.76;99816.53;2265871;77;50427;-76
2022/12/29 03:55:59;;;;;;;;;;;;;;;20.11;53.84;99821.71;2265476;78;50360;-75
2022/12/29 03:59:01;;;;;;;;;;;;;;;20.03;54.02;99825.98;2240894;78;52525;-76
2022/12/29 04:02:02;;;;;;;;;;;;;;;19.95;54.21;99824.89;2261523;78;50672;-76
2022/12/29 04:05:04;;;;;;;;;;;;;;;19.84;54.42;99830.92;2250870;79;50735;-76
2022/12/29 04:08:06;;;;;;;;;;;;;;;19.75;54.59;99835.16;2261308;78;50034;-76
2022/12/29 04:11:07;;;;;;;;;;;;;;;19.69;54.79;99817.75;2261449;78;49614;-76
2022/12/29 04:14:09;;;;;;;;;;;;;;;19.69;54.87;99820.42;2266041;77;50393;-76
2022/12/29 04:17:10;;;;;;;;;;;;;;;19.72;54.82;99825.37;2250624;79;50413;-76
2022/12/29 04:23:32;;;;;;;;;;;;;;;19.79;54.59;99814.92;2251114;79;23500;-76
2022/12/29 04:26:34;;;;;;;;;;;;;;;19.83;54.51;99816.66;2250567;79;51691;-76
2022/12/29 04:29:35;;;;;;;;;;;;;;;19.90;54.36;99820.14;2250798;79;51516;-76
2022/12/29 04:32:38;;;;;;;;;;;;;;;19.92;54.32;99825.31;2266945;77;51619;-76
2022/12/29 04:35:39;;;;;;;;;;;;;;;19.97;54.20;99815.58;2263096;78;52295;-76
2022/12/29 04:38:41;;;;;;;;;;;;;;;20.02;54.05;99817.64;2253367;78;50627;-76
2022/12/29 04:41:42;;;;;;;;;;;;;;;20.08;53.92;99813.27;2261373;78;51517;-76
2022/12/29 04:44:44;;;;;;;;;;;;;;;20.10;53.84;99810.67;2264474;78;51470;-77
2022/12/29 04:47:45;;;;;;;;;;;;;;;20.13;53.77;99805.39;2265868;78;51407;-76
2022/12/29 04:50:48;;;;;;;;;;;;;;;20.15;53.73;99806.83;2266089;78;51495;-76
2022/12/29 04:53:49;;;;;;;;;;;;;;;20.19;53.65;99807.22;2266137;78;51516;-76
2022/12/29 04:56:51;;;;;;;;;;;;;;;20.21;53.64;99807.31;2257582;78;51318;-76
2022/12/29 04:59:52;;;;;;;;;;;;;;;20.25;53.55;99794.81;2264248;78;51476;-76
2022/12/29 05:02:54;;;;;;;;;;;;;;;20.24;53.55;99783.22;2266003;78;51402;-77
2022/12/29 05:05:56;;;;;;;;;;;;;;;20.18;53.63;99786.25;2264421;78;51686;-76
2022/12/29 05:08:57;;;;;;;;;;;;;;;20.12;53.77;99794.36;2266173;78;51554;-76
2022/12/29 05:11:59;;;;;;;;;;;;;;;20.05;53.93;99797.06;2240954;78;51099;-76
2022/12/29 05:15:02;;;;;;;;;;;;;;;19.96;54.06;99796.98;2265314;77;51547;-76
2022/12/29 05:18:04;;;;;;;;;;;;;;;19.86;54.27;99788.56;2265263;78;50361;-76
2022/12/29 05:21:05;;;;;;;;;;;;;;;19.78;54.52;99783.75;2264384;78;50809;-76
2022/12/29 05:24:07;;;;;;;;;;;;;;;19.77;54.61;99782.09;2241156;78;51177;-76
2022/12/29 05:27:08;;;;;;;;;;;;;;;19.79;54.58;99776.00;2265412;78;51532;-76
2022/12/29 05:30:11;;;;;;;;;;;;;;;19.84;54.51;99782.60;2267339;77;50385;-77
2022/12/29 05:33:12;;;;;;;;;;;;;;;19.88;54.47;99769.86;2267345;77;50246;-76
2022/12/29 05:36:14;;;;;;;;;;;;;;;19.95;54.51;99763.13;2232986;78;51233;-77
2022/12/29 05:39:15;;;;;;;;;;;;;;;20.01;54.35;99759.58;2261355;76;50019;-76
2022/12/29 05:42:17;;;;;;;;;;;;;;;20.06;54.30;99766.48;2268873;77;51541;-78
2022/12/29 05:45:18;;;;;;;;;;;;;;;20.10;54.22;99752.12;2270163;77;50107;-77
2022/12/29 05:48:20;;;;;;;;;;;;;;;20.03;54.26;99761.53;2246590;76;49594;-77
2022/12/29 05:51:22;;;;;;;;;;;;;;;19.99;54.32;99760.34;2250967;79;51499;-77
2022/12/29 05:54:23;;;;;;;;;;;;;;;19.91;54.49;99757.87;2251345;79;50030;-77
2022/12/29 05:57:25;;;;;;;;;;;;;;;19.82;54.66;99759.16;2260822;78;50634;-77
2022/12/29 06:00:26;;;;;;;;;;;;;;;19.74;54.91;99757.02;2268647;77;51049;-76
2022/12/29 06:03:28;;;;;;;;;;;;;;;19.66;55.23;99754.55;2264928;78;50623;-77
2022/12/29 06:06:30;;;;;;;;;;;;;;;19.59;55.42;99747.03;2264641;78;51236;-77
2022/12/29 06:09:31;;;;;;;;;;;;;;;19.49;55.60;99747.98;2268370;78;51425;-78
2022/12/29 06:12:33;;;;;;;;;;;;;;;19.40;55.78;99738.54;2249518;78;51654;-78
2022/12/29 06:15:34;;;;;;;;;;;;;;;19.31;55.93;99737.40;2273694;77;51239;-78
2022/12/29 06:18:36;;;;;;;;;;;;;;;19.22;56.09;99742.70;2271195;77;51398;-78
2022/12/29 06:21:38;;;;;;;;;;;;;;;19.14;56.21;99744.27;2275697;77;52232;-77
2022/12/29 06:24:40;;;;;;;;;;;;;;;19.07;56.36;99735.40;2249236;78;50172;-78
2022/12/29 06:27:43;;;;;;;;;;;;;;;19.01;56.50;99752.30;2272781;78;50168;-78
2022/12/29 06:30:45;;;;;;;;;;;;;;;18.93;56.64;99746.14;2269925;78;50236;-78
2022/12/29 06:33:47;;;;;;;;;;;;;;;18.88;56.76;99741.91;2270763;78;50778;-78
2022/12/29 06:36:48;;;;;;;;;;;;;;;18.82;56.90;99741.38;2235662;78;50102;-77
2022/12/29 06:39:50;;;;;;;;;;;;;;;18.76;57.03;99743.56;2209650;79;51616;-78
2022/12/29 06:42:51;;;;;;;;;;;;;;;18.70;57.07;99747.87;2211115;78;50718;-78
2022/12/29 06:45:53;;;;;;;;;;;;;;;18.65;57.21;99744.98;2247913;78;50694;-78
2022/12/29 06:48:54;;;;;;;;;;;;;;;18.63;57.35;99751.05;2257692;77;51406;-78
2022/12/29 06:51:58;;;;;;;;;;;;;;;18.64;57.37;99761.25;2253688;78;50749;-79
2022/12/29 06:54:59;;;;;;;;;;;;;;;18.64;57.37;99745.98;2254014;78;50308;-77
2022/12/29 06:58:01;;;;;;;;;;;;;;;18.66;57.40;99760.53;2264034;78;50632;-79
2022/12/29 07:01:03;;;;;;;;;;;;;;;18.68;57.39;99766.52;2263840;78;51764;-79
2022/12/29 07:04:04;;;;;;;;;;;;;;;18.72;57.32;99770.42;2264011;78;50641;-79
2022/12/29 07:07:06;;;;;;;;;;;;;;;18.75;57.25;99768.69;2252134;78;52130;-79
2022/12/29 07:10:07;;;;;;;;;;;;;;;18.78;57.18;99770.14;2252470;79;51502;-79
2022/12/29 07:13:09;;;;;;;;;;;;;;;18.84;57.03;99762.11;2262693;78;52808;-80
2022/12/29 07:16:11;;;;;;;;;;;;;;;18.88;56.95;99762.02;2266331;78;51535;-79
2022/12/29 07:19:13;;;;;;;;;;;;;;;18.85;56.98;99767.77;2266647;78;50269;-77
2022/12/29 07:22:15;;;;;;;;;;;;;;;18.83;57.05;99775.22;2266201;78;50015;-77
2022/12/29 07:25:17;;;;;;;;;;;;;;;18.79;57.15;99775.30;2267360;78;50405;-78
2022/12/29 07:28:18;;;;;;;;;;;;;;;18.76;57.22;99777.06;2267055;78;50473;-78
2022/12/29 07:31:21;;;;;;;;;;;;;;;18.72;57.30;99773.92;2265241;78;50256;-79
2022/12/29 07:34:22;;;;;;;;;;;;;;;18.68;57.39;99773.22;2264220;78;51449;-77
2022/12/29 07:37:24;;;;;;;;;;;;;;;18.63;57.42;99769.80;2261949;78;51361;-77
2022/12/29 07:40:25;;;;;;;;;;;;;;;18.61;57.58;99772.37;2261498;78;51408;-76
2022/12/29 07:43:27;;;;;;;;;;;;;;;18.64;57.61;99755.36;2250842;79;50395;-77
2022/12/29 07:46:29;;;;;;;;;;;;;;;18.68;57.58;99759.30;2250635;79;50142;-76
2022/12/29 07:49:30;;;;;;;;;;;;;;;18.77;57.38;99762.62;2247488;78;51179;-76
2022/12/29 07:52:32;;;;;;;;;;;;;;;18.81;57.28;99758.51;2270892;77;50772;-77
2022/12/29 07:55:33;;;;;;;;;;;;;;;18.79;57.29;99771.28;2269030;78;50721;-77
2022/12/29 07:58:35;;;;;;;;;;;;;;;18.77;57.33;99768.50;2267027;78;51464;-77
2022/12/29 08:01:36;;;;;;;;;;;;;;;18.73;57.37;99764.05;2266619;78;51625;-78
2022/12/29 08:04:38;;;;;;;;;;;;;;;18.69;57.49;99777.02;2266038;78;53115;-78
2022/12/29 08:07:40;;;;;;;;;;;;;;;18.66;57.57;99767.23;2265593;78;51580;-78
2022/12/29 08:10:41;;;;;;;;;;;;;;;18.63;57.90;99772.48;2255516;77;51461;-77
2022/12/29 08:13:43;;;;;;;;;;;;;;;18.59;58.35;99767.21;2241149;78;51179;-78
2022/12/29 08:16:44;;;;;;;;;;;;;;;18.57;58.83;99769.27;2256634;78;50698;-79
2022/12/29 08:19:46;;;;;;;;;;;;;;;18.62;58.55;99770.00;2266119;78;50101;-79
2022/12/29 08:22:47;;;;;;;;;;;;;;;18.62;58.61;99750.72;2264479;78;50726;-79
2022/12/29 08:25:51;;;;;;;;;;;;;;;18.67;58.45;99753.61;2241364;78;51578;-77
2022/12/29 08:28:53;;;;;;;;;;;;;;;18.72;58.57;99765.88;2263924;78;51509;-77
2022/12/29 08:31:54;;;;;;;;;;;;;;;18.79;58.59;99770.47;2264314;78;50297;-76
2022/12/29 08:34:56;;;;;;;;;;;;;;;18.79;58.68;99771.80;2264636;78;50390;-79
2022/12/29 08:37:57;;;;;;;;;;;;;;;18.75;58.94;99761.14;2266120;78;50084;-78
2022/12/29 08:41:00;;;;;;;;;;;;;;;18.75;59.09;99762.48;2264868;78;50703;-78
2022/12/29 08:44:02;;;;;;;;;;;;;;;18.71;59.21;99751.36;2265312;78;51665;-78
2022/12/29 08:47:04;;;;;;;;;;;;;;;18.71;59.59;99744.66;2249798;78;50604;-80
2022/12/29 08:50:05;;;;;;;;;;;;;;;18.66;59.62;99751.97;2209995;79;52455;-80
2022/12/29 08:53:07;;;;;;;;;;;;;;;18.63;59.62;99760.43;2209669;79;50639;-78
2022/12/29 08:56:09;;;;;;;;;;;;;;;18.62;59.83;99757.94;2209379;79;50724;-78
2022/12/29 08:59:10;;;;;;;;;;;;;;;18.58;59.97;99760.22;2232673;79;50512;-77
2022/12/29 09:02:12;;;;;;;;;;;;;;;18.55;59.92;99761.12;2232466;79;51482;-79
2022/12/29 09:05:13;;;;;;;;;;;;;;;18.52;59.93;99758.34;2232657;79;50249;-79
2022/12/29 09:08:15;;;;;;;;;;;;;;;18.48;60.06;99747.22;2209797;79;50665;-79
2022/12/29 09:11:18;;;;;;;;;;;;;;;18.47;59.99;99748.75;2232781;79;50325;-78
2022/12/29 09:14:21;;;;;;;;;;;;;;;18.43;60.11;99754.22;2209383;79;51910;-76
2022/12/29 09:20:42;;;;;;;;;;;;;;;18.44;60.19;99751.84;2232433;79;23343;-75
2022/12/29 09:23:43;;;;;;;;;;;;;;;18.43;60.25;99760.39;2232251;79;51535;-77
2022/12/29 09:26:45;;;;;;;;;;;;;;;18.42;60.31;99749.38;2185864;79;52426;-76
2022/12/29 09:29:47;;;;;;;;;;;;;;;18.41;60.32;99742.36;2209456;79;51509;-77
2022/12/29 09:32:48;;;;;;;;;;;;;;;18.44;60.42;99751.84;2231987;79;51885;-78
2022/12/29 09:35:53;;;;;;;;;;;;;;;18.47;60.48;99746.06;2231888;79;49994;-77
2022/12/29 09:38:55;;;;;;;;;;;;;;;18.52;60.50;99739.58;2209942;79;50995;-81
2022/12/29 09:41:58;;;;;;;;;;;;;;;18.56;59.32;99740.84;2210157;79;51494;-82
2022/12/29 09:45:02;;;;;;;;;;;;;;;18.55;56.83;99739.69;2233069;79;51522;-80
2022/12/29 09:48:04;;;;;;;;;;;;;;;18.50;56.88;99729.09;2232734;79;50281;-77
2022/12/29 09:51:07;;;;;;;;;;;;;;;18.46;57.69;99723.81;2209992;79;51573;-77
2022/12/29 09:54:10;;;;;;;;;;;;;;;18.46;58.20;99720.32;2232932;78;51556;-79
2022/12/29 09:57:22;;;;;;;;;;;;;;;18.44;58.48;99720.52;2231081;78;51534;-78
2022/12/29 10:00:29;;;;;;;;;;;;;;;18.46;58.87;99726.50;2228053;78;50784;-80
2022/12/29 10:03:50;;;;;;;;;;;;;;;18.44;59.10;99728.55;2204441;79;51770;-78
2022/12/29 10:06:52;;;;;;;;;;;;;;;18.45;59.48;99730.73;2208020;78;51437;-79
2022/12/29 10:10:12;;;;;;;;;;;;;;;18.40;59.39;99739.38;2232165;78;50394;-79
2022/12/29 10:13:18;;;;;;;;;;;;;;;18.41;59.57;99728.15;2232490;79;50994;-78
2022/12/29 10:16:21;;;;;;;;;;;;;;;18.42;59.68;99727.95;2208703;79;52554;-77
2022/12/29 10:19:36;;;;;;;;;;;;;;;18.45;59.63;99731.56;2231059;78;51518;-76
2022/12/29 10:22:39;;;;;;;;;;;;;;;18.52;59.54;99732.06;2231869;79;51615;-76
2022/12/29 10:25:41;;;;;;;;;;;;;;;18.58;58.20;99724.05;2231266;78;51581;-76
2022/12/29 10:28:48;;;;;;;;;;;;;;;18.53;58.66;99725.17;2212219;77;51733;-75
2022/12/29 10:31:57;;;;;;;;;;;;;;;18.50;59.07;99719.72;2284509;77;50782;-76
2022/12/29 10:34:59;;;;;;;;;;;;;;;18.53;58.98;99709.63;2304182;77;50784;-76
2022/12/29 10:38:03;;;;;;;;;;;;;;;18.50;58.94;99718.89;2289036;77;50743;-76
2022/12/29 10:41:16;;;;;;;;;;;;;;;18.46;59.06;99702.39;2267159;77;52429;-77
2022/12/29 10:44:17;;;;;;;;;;;;;;;18.42;59.33;99714.56;2289422;77;51581;-76
2022/12/29 10:47:20;;;;;;;;;;;;;;;18.37;59.38;99706.80;2289275;77;51528;-76
2022/12/29 10:50:21;;;;;;;;;;;;;;;18.32;59.50;99712.80;2289369;77;50514;-76
2022/12/29 10:53:24;;;;;;;;;;;;;;;18.29;59.55;99697.14;2267535;77;49666;-77
2022/12/29 10:56:36;;;;;;;;;;;;;;;18.32;59.58;99710.13;2289648;77;50371;-77
2022/12/29 10:59:37;;;;;;;;;;;;;;;18.39;59.43;99701.55;2289672;77;50268;-78
2022/12/29 11:02:41;;;;;;;;;;;;;;;18.48;59.19;99704.88;2289479;77;51504;-77
2022/12/29 11:05:53;;;;;;;;;;;;;;;18.56;59.02;99711.89;2267489;76;52373;-76
2022/12/29 11:08:56;;;;;;;;;;;;;;;18.62;58.86;99708.38;2289518;77;50510;-77
2022/12/29 11:11:58;;;;;;;;;;;;;;;18.70;58.66;99704.14;2289910;77;50416;-77
2022/12/29 11:15:10;;;;;;;;;;;;;;;18.72;58.47;99710.94;2289606;77;50615;-76
2022/12/29 11:18:22;;;;;;;;;;;;;;;18.70;58.49;99714.37;2267261;77;52491;-77
2022/12/29 11:21:44;;;;;;;;;;;;;;;18.67;58.53;99704.04;2289564;77;51469;-78
2022/12/29 11:24:45;;;;;;;;;;;;;;;18.64;58.54;99710.34;2286629;77;22547;-80
2022/12/29 11:28:00;;;;;;;;;;;;;;;18.58;58.71;99699.94;2264576;78;51656;-78
2022/12/29 11:31:02;;;;;;;;;;;;;;;18.50;58.88;99721.58;2241481;78;49591;-78
2022/12/29 11:34:06;;;;;;;;;;;;;;;18.45;59.06;99716.83;2264827;78;50679;-78
2022/12/29 11:37:09;;;;;;;;;;;;;;;18.40;59.24;99724.65;2264856;78;50312;-78
2022/12/29 11:40:17;;;;;;;;;;;;;;;18.39;59.30;99716.28;2264840;78;51555;-78
2022/12/29 11:43:24;;;;;;;;;;;;;;;18.49;59.12;99729.28;2266484;78;51242;-77
2022/12/29 11:46:26;;;;;;;;;;;;;;;18.58;58.91;99731.27;2264616;78;50678;-78
2022/12/29 11:49:28;;;;;;;;;;;;;;;18.68;58.67;99720.97;2264605;78;52508;-78
2022/12/29 11:52:32;;;;;;;;;;;;;;;18.73;58.45;99727.87;2264517;78;51513;-77
2022/12/29 11:55:34;;;;;;;;;;;;;;;18.75;58.33;99733.85;2264331;78;51455;-77
2022/12/29 11:58:36;;;;;;;;;;;;;;;18.75;58.24;99728.98;2264173;78;51557;-77
2022/12/29 12:01:38;;;;;;;;;;;;;;;18.70;58.31;99736.30;2264390;78;50285;-76
2022/12/29 12:04:39;;;;;;;;;;;;;;;18.65;58.40;99744.98;2264500;78;50340;-76
2022/12/29 12:07:42;;;;;;;;;;;;;;;18.60;58.49;99754.63;2265643;78;52468;-76
2022/12/29 12:10:45;;;;;;;;;;;;;;;18.55;58.56;99767.33;2264389;78;50332;-76
2022/12/29 12:14:05;;;;;;;;;;;;;;;18.48;58.69;99765.97;2263803;78;50389;-76
2022/12/29 12:17:08;;;;;;;;;;;;;;;18.41;59.18;99767.80;2264229;78;52597;-76
2022/12/29 12:20:29;;;;;;;;;;;;;;;18.44;59.37;99745.95;2240763;78;52617;-76
2022/12/29 12:23:33;;;;;;;;;;;;;;;18.49;59.32;99754.21;2265010;78;50701;-75
2022/12/29 12:26:42;;;;;;;;;;;;;;;18.56;59.38;99757.43;2268831;77;51487;-76
2022/12/29 12:30:00;;;;;;;;;;;;;;;18.64;59.23;99753.20;2269015;77;51611;-75
2022/12/29 12:33:06;;;;;;;;;;;;;;;18.69;59.09;99759.59;2245779;78;52529;-77
2022/12/29 12:36:18;;;;;;;;;;;;;;;18.76;58.93;99748.92;2268651;78;52509;-77
2022/12/29 12:39:38;;;;;;;;;;;;;;;18.79;58.79;99747.16;2268796;77;50180;-76
2022/12/29 12:42:47;;;;;;;;;;;;;;;18.78;58.69;99740.16;2268903;77;51467;-76
2022/12/29 12:45:50;;;;;;;;;;;;;;;18.75;58.77;99735.20;2245729;78;52630;-77
2022/12/29 12:49:03;;;;;;;;;;;;;;;18.73;58.80;99737.25;2268918;77;51623;-77
2022/12/29 12:52:15;;;;;;;;;;;;;;;18.66;58.97;99733.73;2269141;77;51451;-75
2022/12/29 12:55:31;;;;;;;;;;;;;;;18.60;59.12;99742.58;2268995;77;51441;-75
2022/12/29 12:58:34;;;;;;;;;;;;;;;18.52;59.44;99742.27;2245231;78;53575;-75
2022/12/29 13:01:37;;;;;;;;;;;;;;;18.48;59.47;99737.02;2260934;78;51604;-75
2022/12/29 13:04:41;;;;;;;;;;;;;;;18.46;59.72;99736.39;2268869;77;51507;-76
2022/12/29 13:08:00;;;;;;;;;;;;;;;18.51;59.69;99735.27;2269039;77;51623;-75
2022/12/29 13:11:09;;;;;;;;;;;;;;;18.61;59.47;99746.41;2246463;78;52443;-73
2022/12/29 13:14:30;;;;;;;;;;;;;;;18.65;59.34;99750.83;2271779;77;50795;-75
2022/12/29 13:17:48;;;;;;;;;;;;;;;18.67;59.37;99749.59;2271157;77;51490;-72
2022/12/29 13:20:54;;;;;;;;;;;;;;;18.65;59.33;99754.84;2269195;77;51537;-72
2022/12/29 13:24:06;;;;;;;;;;;;;;;18.59;59.37;99753.00;2244976;78;50933;-73
2022/12/29 13:27:12;;;;;;;;;;;;;;;18.56;59.41;99750.73;2272561;77;51550;-73
2022/12/29 13:30:21;;;;;;;;;;;;;;;18.49;59.71;99750.19;2272550;77;50855;-74
2022/12/29 13:33:30;;;;;;;;;;;;;;;18.47;59.78;99752.77;2269352;78;51638;-74
2022/12/29 13:36:42;;;;;;;;;;;;;;;18.42;60.42;99757.42;2245498;78;51564;-72
2022/12/29 13:39:43;;;;;;;;;;;;;;;18.35;60.23;99757.91;2270556;77;22200;-74
2022/12/29 13:42:45;;;;;;;;;;;;;;;18.37;60.41;99755.02;2271874;78;51896;-74
2022/12/29 13:45:47;;;;;;;;;;;;;;;18.40;60.36;99749.27;2267213;78;51530;-77
2022/12/29 13:48:53;;;;;;;;;;;;;;;18.47;60.18;99756.78;2243756;78;49296;-77
2022/12/29 13:51:58;;;;;;;;;;;;;;;18.52;60.33;99753.50;2267274;78;50292;-76
2022/12/29 13:55:02;;;;;;;;;;;;;;;18.57;60.27;99753.19;2267236;78;50778;-75
2022/12/29 13:58:17;;;;;;;;;;;;;;;18.63;60.03;99759.61;2267063;78;51600;-74
2022/12/29 14:01:20;;;;;;;;;;;;;;;18.64;59.71;99765.27;2237338;78;51475;-75
2022/12/29 14:04:23;;;;;;;;;;;;;;;18.60;59.61;99761.33;2266550;78;50334;-74
2022/12/29 14:07:24;;;;;;;;;;;;;;;18.56;59.70;99768.15;2274846;78;51470;-72
2022/12/29 14:10:36;;;;;;;;;;;;;;;18.49;60.07;99762.25;2273394;78;51453;-75
2022/12/29 14:13:41;;;;;;;;;;;;;;;18.45;60.31;99773.59;2247237;78;51562;-75
2022/12/29 14:16:44;;;;;;;;;;;;;;;18.42;60.52;99776.17;2273966;78;50784;-75
2022/12/29 14:19:45;;;;;;;;;;;;;;;18.40;60.77;99774.20;2273462;78;51675;-75
2022/12/29 14:22:57;;;;;;;;;;;;;;;18.38;60.76;99773.57;2274838;78;50750;-75
2022/12/29 14:26:00;;;;;;;;;;;;;;;18.42;60.59;99769.47;2252314;78;51786;-75
2022/12/29 14:29:07;;;;;;;;;;;;;;;18.49;60.45;99782.34;2273725;78;50490;-75
2022/12/29 14:32:25;;;;;;;;;;;;;;;18.57;60.40;99788.53;2257722;78;51558;-75
2022/12/29 14:35:41;;;;;;;;;;;;;;;18.60;60.31;99787.63;2273641;78;50387;-75
2022/12/29 14:38:44;;;;;;;;;;;;;;;18.69;59.95;99790.41;2272547;78;51450;-76
2022/12/29 14:41:45;;;;;;;;;;;;;;;18.65;59.99;99804.41;2274365;78;51568;-76
2022/12/29 14:44:49;;;;;;;;;;;;;;;18.62;60.06;99799.47;2274073;78;51578;-77
2022/12/29 14:47:51;;;;;;;;;;;;;;;18.60;60.15;99816.26;2273875;78;51454;-78
2022/12/29 14:50:52;;;;;;;;;;;;;;;18.55;60.69;99808.00;2275389;78;51514;-76
2022/12/29 14:53:54;;;;;;;;;;;;;;;18.49;60.74;99806.45;2253442;78;50983;-78
2022/12/29 14:56:57;;;;;;;;;;;;;;;18.47;61.10;99807.19;2275762;78;51530;-79
2022/12/29 15:00:00;;;;;;;;;;;;;;;18.43;61.46;99812.63;2274670;78;51572;-79
2022/12/29 15:03:06;;;;;;;;;;;;;;;18.46;61.97;99808.20;2275652;78;50967;-78
2022/12/29 15:06:11;;;;;;;;;;;;;;;18.50;62.04;99814.81;2253034;78;51144;-78
2022/12/29 15:09:14;;;;;;;;;;;;;;;18.61;61.80;99821.95;2275023;78;22414;-77
2022/12/29 15:12:17;;;;;;;;;;;;;;;18.66;61.38;99820.30;2273809;78;50269;-76
2022/12/29 15:15:20;;;;;;;;;;;;;;;18.62;62.19;99814.20;2274948;78;50325;-77
2022/12/29 15:18:26;;;;;;;;;;;;;;;18.64;61.57;99829.57;2248823;78;51078;-78
2022/12/29 15:21:29;;;;;;;;;;;;;;;18.58;62.29;99841.11;2275116;78;51541;-76
2022/12/29 15:24:30;;;;;;;;;;;;;;;18.55;62.50;99864.27;2272955;78;51574;-76
2022/12/29 15:27:32;;;;;;;;;;;;;;;18.60;61.96;99869.84;2274674;78;51463;-78
2022/12/29 15:30:33;;;;;;;;;;;;;;;18.57;61.93;99863.55;2253236;78;51313;-78
2022/12/29 15:33:37;;;;;;;;;;;;;;;18.50;62.07;99861.69;2278092;77;50251;-79
2022/12/29 15:36:39;;;;;;;;;;;;;;;18.42;62.48;99863.22;2275337;78;51569;-77
2022/12/29 15:39:40;;;;;;;;;;;;;;;18.48;62.59;99866.42;2273848;78;50305;-76
2022/12/29 15:42:44;;;;;;;;;;;;;;;18.53;62.05;99861.80;2245984;78;51080;-75
2022/12/29 15:45:45;;;;;;;;;;;;;;;18.58;62.30;99866.56;2273613;78;50692;-75
2022/12/29 15:48:47;;;;;;;;;;;;;;;18.62;62.07;99859.75;2274599;78;50769;-76
2022/12/29 15:51:48;;;;;;;;;;;;;;;18.62;62.16;99861.09;2273758;78;51426;-76
2022/12/29 15:54:50;;;;;;;;;;;;;;;18.60;62.17;99872.52;2246490;78;52509;-75
2022/12/29 15:57:52;;;;;;;;;;;;;;;18.60;61.96;99873.86;2273505;78;50706;-76
2022/12/29 16:00:54;;;;;;;;;;;;;;;18.58;61.73;99885.31;2270947;78;50671;-74
2022/12/29 16:03:57;;;;;;;;;;;;;;;18.53;61.66;99885.91;2273801;78;51666;-74
2022/12/29 16:06:59;;;;;;;;;;;;;;;18.52;61.75;99888.78;2276345;78;50399;-74
2022/12/29 16:10:01;;;;;;;;;;;;;;;18.43;62.12;99887.63;2275858;77;51544;-73
2022/12/29 16:13:14;;;;;;;;;;;;;;;18.42;61.99;99894.02;2275952;77;50430;-74
2022/12/29 16:16:17;;;;;;;;;;;;;;;18.47;62.22;99905.45;2275863;78;51636;-76
2022/12/29 16:19:23;;;;;;;;;;;;;;;18.53;62.38;99905.19;2254647;78;51231;-75
2022/12/29 16:22:34;;;;;;;;;;;;;;;18.56;62.26;99904.78;2275764;78;51657;-75
2022/12/29 16:25:37;;;;;;;;;;;;;;;18.62;62.02;99902.63;2275911;78;49988;-76
2022/12/29 16:28:44;;;;;;;;;;;;;;;18.65;61.91;99909.77;2275683;78;51560;-75
2022/12/29 16:31:53;;;;;;;;;;;;;;;18.61;62.11;99909.02;2254631;78;51266;-76
2022/12/29 16:35:02;;;;;;;;;;;;;;;18.60;61.94;99908.69;2275929;77;50435;-76
2022/12/29 16:38:17;;;;;;;;;;;;;;;18.54;62.27;99918.36;2275592;76;50284;-75
2022/12/29 16:41:31;;;;;;;;;;;;;;;18.52;62.41;99918.25;2237269;79;50309;-76